Accueil
METAR-TAF:

METAR-TAF

Aéroports :

Dakar, Sénégal

Aéroport international Léopold-Sédar-Senghor

latitude: 14-44N, longitude: 017-30W, altitude: 27 m

Observation

Le bulletin a été fait il y a 39 minutes, à 09:00 UTC
Vent 8 kt de nord-est
Température 19°C
Humidité 68%
Pression 1013 hPa
Visibilité: 8000 m

METAR: GOOY 240900Z 04008KT 8000 NSC 19/13 Q1013

Heure: 09:39 (09:39 UTC)

Prévision

Le bulletin a été fait il y a 4 heures et 9 minutes, à 05:30 UTC
Prévision valable du 24 à 06 UTC au 25 à 12 UTC
Vent 12 kt de nord/nord-est
Visibilité: 6000 m

TAF: GOOY 240530Z 2406/2512 02012KT 6000 NSC

Observations et prévisions météorologiques de plus de 4000 aéroports (messages METAR et TAF).

Les stations disponibles sont représentées par des disques jaunes et rouges sur la carte.

Passer la souris dessus pour voir le nom de la station.

Cliquer dessus pour voir les observations et prévisions météorologiques.

Pour changer de carte: cliquez sur les boutons verts avec une croix noire pour zoomer, sur le bouton vert avec un tiret pour effectuer un zoom arrière, ou sur les flèches vertes pour les cartes adjacentes.


METAR-TAF: